Main page
METAR-TAF:

METAR-TAF

Airports :

Mehrabad International Airport

Tehran, Iran

latitude: 35-41N, longitude: 051-21E, elevation: 1204 m

Current weather observation

The report was made 33 minutes ago, at 05:30 UTC
Wind 4 kt from the Southeast
Temperature 2°C
Humidity 69%
Pressure 1016 hPa
Visibility: 8000 m

METAR: OIII 240530Z 13004KT 8000 NSC 02/M03 Q1015 A3000

Time: 09:33 (06:03 UTC)

Forecast

The report was made 7 hours and 3 minutes ago, at 23:00 UTC
Forecast valid from 24 at 00 UTC to 25 at 06 UTC
Wind 12 kt from the West
Visibility: 8000 m
Few clouds at a height of 4000 ft
Scattered clouds at a height of 10000 ft
Becoming
from 25 at 03 UTC to 25 at 05 UTC
Scattered clouds at a height of 4000 ft
Broken clouds at a height of 10000 ft

TAF: OIII 232300Z 2400/2506 28012KT 8000 FEW040 SCT100 BECMG 2503/2505 SCT040 BKN100

Weather observations and forecasts of more than 4000 airports (METAR and TAF reports).

The available stations are represented by yellow and red dots on the map.

Hover mouse over dot to see the name of the station.

Then click to see weather observations and forecasts.

To change the map : click on the green buttons with a black cross to zoom in, on the green button with a dash to zoom out, or on the green arrows for adjacent maps.


METAR-TAF: